UAL1962 KLAX-KORD
Flight info
| Callsign | UAL1962 |
|---|---|
| Flight time | N/A |
| Altitude | 35000 |
| Route | OSHNN1 BEALE Q842 WINEN OCS MBW/N0448F370 ONL Q122 VIGGR MYRRS FYTTE7 |
| Aircraft | B753/M-SDE3FGHIM3RWXY/LB1 |
Departure
| Time | N/A |
|---|---|
| Airport | Los Angeles International Airport (KLAX) |
Arrival
| Time | 2026-05-05 11:27 |
|---|---|
| Airport | Chicago O'Hare International Airport (KORD) |
| Time | Latitude | Longitude | Altitude | Speed | Heading |
|---|---|---|---|---|---|
| 2026-05-05 10:38 | 42.56330 | -94.28016 | 36891 ft | 558 kts | 90° |
| 2026-05-05 10:38 | 42.56304 | -94.17776 | 36887 ft | 555 kts | 90° |
| 2026-05-05 10:39 | 42.56268 | -94.07253 | 36892 ft | 557 kts | 89° |
| 2026-05-05 10:39 | 42.56224 | -93.96838 | 36887 ft | 556 kts | 89° |
| 2026-05-05 10:40 | 42.56170 | -93.86346 | 36879 ft | 555 kts | 89° |
| 2026-05-05 10:40 | 42.56109 | -93.75947 | 36882 ft | 557 kts | 90° |
| 2026-05-05 10:41 | 42.56036 | -93.65509 | 36893 ft | 556 kts | 90° |
| 2026-05-05 10:41 | 42.55952 | -93.55045 | 37033 ft | 553 kts | 90° |
| 2026-05-05 10:42 | 42.55859 | -93.44599 | 36884 ft | 552 kts | 89° |
| 2026-05-05 10:42 | 42.55827 | -93.41110 | 36891 ft | 556 kts | 89° |
| 2026-05-05 10:43 | 42.55704 | -93.28779 | 36867 ft | 558 kts | 90° |
| 2026-05-05 10:43 | 42.55588 | -93.18336 | 36873 ft | 556 kts | 90° |
| 2026-05-05 10:44 | 42.55410 | -93.07869 | 36877 ft | 559 kts | 91° |
| 2026-05-05 10:44 | 42.55135 | -92.97378 | 36878 ft | 557 kts | 91° |
| 2026-05-05 10:45 | 42.54858 | -92.86903 | 36875 ft | 556 kts | 91° |
| 2026-05-05 10:45 | 42.54570 | -92.76447 | 36873 ft | 556 kts | 91° |
| 2026-05-05 10:46 | 42.54275 | -92.66064 | 36873 ft | 550 kts | 91° |
| 2026-05-05 10:46 | 42.53973 | -92.55716 | 36877 ft | 551 kts | 91° |
| 2026-05-05 10:47 | 42.53659 | -92.45345 | 36879 ft | 553 kts | 91° |
| 2026-05-05 10:47 | 42.53336 | -92.34972 | 36878 ft | 551 kts | 92° |
| 2026-05-05 10:48 | 42.53013 | -92.24796 | 36862 ft | 551 kts | 92° |
| 2026-05-05 10:48 | 42.52670 | -92.14394 | 36866 ft | 552 kts | 91° |
| 2026-05-05 10:49 | 42.52370 | -92.03999 | 36870 ft | 550 kts | 89° |
| 2026-05-05 10:49 | 42.52469 | -91.93697 | 36869 ft | 549 kts | 88° |
| 2026-05-05 10:50 | 42.52540 | -91.83369 | 36873 ft | 551 kts | 88° |
| 2026-05-05 10:50 | 42.52597 | -91.73009 | 36869 ft | 550 kts | 88° |
| 2026-05-05 10:51 | 42.52622 | -91.68094 | 36868 ft | 550 kts | 88° |
| 2026-05-05 10:51 | 42.52663 | -91.57870 | 36861 ft | 549 kts | 88° |
| 2026-05-05 10:52 | 42.52689 | -91.49835 | 36861 ft | 551 kts | 88° |
| 2026-05-05 10:52 | 42.52710 | -91.40953 | 36861 ft | 550 kts | 88° |
| 2026-05-05 10:53 | 42.52720 | -91.30628 | 36842 ft | 550 kts | 89° |
| 2026-05-05 10:53 | 42.52722 | -91.20294 | 36843 ft | 550 kts | 89° |
| 2026-05-05 10:54 | 42.52714 | -91.10112 | 36837 ft | 549 kts | 89° |
| 2026-05-05 10:54 | 42.52698 | -90.99760 | 36837 ft | 550 kts | 89° |
| 2026-05-05 10:55 | 42.52671 | -90.89463 | 36847 ft | 550 kts | 89° |
| 2026-05-05 10:55 | 42.52632 | -90.79118 | 36852 ft | 548 kts | 89° |
| 2026-05-05 10:56 | 42.52575 | -90.68795 | 36861 ft | 549 kts | 89° |
| 2026-05-05 10:56 | 42.52543 | -90.63661 | 36659 ft | 555 kts | 89° |
| 2026-05-05 10:56 | 42.52510 | -90.58375 | 36069 ft | 561 kts | 89° |
| 2026-05-05 10:56 | 42.52474 | -90.53180 | 35615 ft | 558 kts | 90° |
| 2026-05-05 10:57 | 42.52434 | -90.47937 | 35141 ft | 552 kts | 90° |
| 2026-05-05 10:57 | 42.52396 | -90.42753 | 34469 ft | 549 kts | 91° |
| 2026-05-05 10:57 | 42.52351 | -90.37652 | 33682 ft | 548 kts | 91° |
| 2026-05-05 10:57 | 42.52307 | -90.32513 | 32875 ft | 550 kts | 91° |
| 2026-05-05 10:58 | 42.52271 | -90.27359 | 32053 ft | 551 kts | 92° |
| 2026-05-05 10:58 | 42.52235 | -90.22166 | 31229 ft | 553 kts | 92° |
| 2026-05-05 10:58 | 42.52200 | -90.16992 | 30413 ft | 554 kts | 92° |
| 2026-05-05 10:58 | 42.52163 | -90.11905 | 29607 ft | 554 kts | 92° |
| 2026-05-05 10:59 | 42.52121 | -90.06750 | 29077 ft | 545 kts | 93° |
| 2026-05-05 10:59 | 42.52081 | -90.01897 | 28948 ft | 530 kts | 92° |
| 2026-05-05 10:59 | 42.52037 | -89.96956 | 28255 ft | 527 kts | 93° |
| 2026-05-05 10:59 | 42.51992 | -89.92015 | 27696 ft | 519 kts | 92° |
| 2026-05-05 11:00 | 42.51944 | -89.87144 | 26914 ft | 518 kts | 92° |
| 2026-05-05 11:00 | 42.51894 | -89.82288 | 26216 ft | 514 kts | 92° |
| 2026-05-05 11:00 | 42.51716 | -89.77488 | 25663 ft | 504 kts | 100° |
| 2026-05-05 11:00 | 42.51213 | -89.72875 | 24979 ft | 500 kts | 102° |
| 2026-05-05 11:01 | 42.50675 | -89.68244 | 24353 ft | 496 kts | 103° |
| 2026-05-05 11:01 | 42.50127 | -89.63664 | 23645 ft | 494 kts | 102° |
| 2026-05-05 11:01 | 42.49572 | -89.59068 | 23064 ft | 488 kts | 102° |
| 2026-05-05 11:01 | 42.49024 | -89.54578 | 22532 ft | 483 kts | 102° |
| 2026-05-05 11:02 | 42.48479 | -89.50131 | 21972 ft | 478 kts | 102° |
| 2026-05-05 11:02 | 42.47939 | -89.45753 | 21379 ft | 474 kts | 102° |
| 2026-05-05 11:02 | 42.47396 | -89.41375 | 20884 ft | 467 kts | 103° |
| 2026-05-05 11:02 | 42.46869 | -89.37082 | 20272 ft | 464 kts | 102° |
| 2026-05-05 11:03 | 42.46346 | -89.32819 | 19782 ft | 457 kts | 103° |
| 2026-05-05 11:03 | 42.45828 | -89.28593 | 19159 ft | 454 kts | 103° |
| 2026-05-05 11:03 | 42.45336 | -89.24606 | 18644 ft | 449 kts | 103° |
| 2026-05-05 11:03 | 42.44819 | -89.20427 | 18030 ft | 444 kts | 103° |
| 2026-05-05 11:04 | 42.44310 | -89.16352 | 17437 ft | 442 kts | 103° |
| 2026-05-05 11:04 | 42.43798 | -89.12241 | 16784 ft | 440 kts | 103° |
| 2026-05-05 11:04 | 42.43286 | -89.08230 | 16218 ft | 436 kts | 103° |
| 2026-05-05 11:04 | 42.42771 | -89.04205 | 15582 ft | 434 kts | 102° |
| 2026-05-05 11:05 | 42.42269 | -89.00185 | 14956 ft | 432 kts | 102° |
| 2026-05-05 11:05 | 42.41773 | -88.96229 | 14404 ft | 428 kts | 102° |
| 2026-05-05 11:05 | 42.41269 | -88.92249 | 13817 ft | 425 kts | 101° |
| 2026-05-05 11:05 | 42.40781 | -88.88374 | 13342 ft | 418 kts | 101° |
| 2026-05-05 11:06 | 42.40286 | -88.84503 | 12727 ft | 415 kts | 101° |
| 2026-05-05 11:06 | 42.39790 | -88.80641 | 12113 ft | 413 kts | 101° |
| 2026-05-05 11:06 | 42.39308 | -88.76881 | 11718 ft | 402 kts | 101° |
| 2026-05-05 11:06 | 42.38840 | -88.73241 | 11597 ft | 385 kts | 101° |
| 2026-05-05 11:07 | 42.38394 | -88.69785 | 11561 ft | 366 kts | 101° |
| 2026-05-05 11:07 | 42.37962 | -88.66446 | 11489 ft | 351 kts | 101° |
| 2026-05-05 11:07 | 42.37541 | -88.63218 | 11194 ft | 343 kts | 102° |
| 2026-05-05 11:07 | 42.37133 | -88.60094 | 11065 ft | 337 kts | 101° |
| 2026-05-05 11:08 | 42.36720 | -88.56943 | 11014 ft | 345 kts | 101° |
| 2026-05-05 11:08 | 42.36302 | -88.53755 | 10990 ft | 347 kts | 101° |
| 2026-05-05 11:08 | 42.35874 | -88.50498 | 10991 ft | 347 kts | 102° |
| 2026-05-05 11:08 | 42.35450 | -88.47274 | 10993 ft | 348 kts | 101° |
| 2026-05-05 11:09 | 42.35032 | -88.44093 | 10991 ft | 347 kts | 101° |
| 2026-05-05 11:09 | 42.34557 | -88.40882 | 10992 ft | 345 kts | 111° |
| 2026-05-05 11:09 | 42.33517 | -88.38052 | 11022 ft | 337 kts | 130° |
| 2026-05-05 11:09 | 42.32169 | -88.35431 | 11000 ft | 340 kts | 130° |
| 2026-05-05 11:10 | 42.30829 | -88.32841 | 10972 ft | 335 kts | 131° |
| 2026-05-05 11:10 | 42.29474 | -88.30270 | 10986 ft | 333 kts | 135° |
| 2026-05-05 11:10 | 42.28094 | -88.28095 | 10993 ft | 331 kts | 139° |
| 2026-05-05 11:10 | 42.26561 | -88.25723 | 10982 ft | 333 kts | 138° |
| 2026-05-05 11:11 | 42.25068 | -88.23373 | 10976 ft | 333 kts | 137° |
| 2026-05-05 11:11 | 42.23560 | -88.20992 | 10978 ft | 335 kts | 137° |
| 2026-05-05 11:11 | 42.22043 | -88.18589 | 10970 ft | 332 kts | 137° |
| 2026-05-05 11:11 | 42.20528 | -88.16234 | 10977 ft | 330 kts | 143° |
| 2026-05-05 11:12 | 42.18718 | -88.14521 | 11016 ft | 311 kts | 166° |
| 2026-05-05 11:12 | 42.16714 | -88.13407 | 10990 ft | 312 kts | 168° |
| 2026-05-05 11:12 | 42.14674 | -88.12302 | 10937 ft | 310 kts | 168° |
| 2026-05-05 11:12 | 42.12700 | -88.11257 | 10888 ft | 305 kts | 169° |
| 2026-05-05 11:13 | 42.10710 | -88.10222 | 10849 ft | 306 kts | 169° |
| 2026-05-05 11:13 | 42.08731 | -88.09203 | 10811 ft | 307 kts | 169° |
| 2026-05-05 11:13 | 42.06737 | -88.08179 | 10772 ft | 305 kts | 169° |
| 2026-05-05 11:13 | 42.04747 | -88.07157 | 10730 ft | 303 kts | 169° |
| 2026-05-05 11:14 | 42.02766 | -88.06148 | 10693 ft | 303 kts | 169° |
| 2026-05-05 11:14 | 42.00792 | -88.05141 | 10656 ft | 303 kts | 169° |
| 2026-05-05 11:14 | 41.98809 | -88.04131 | 10624 ft | 305 kts | 169° |
| 2026-05-05 11:14 | 41.96838 | -88.03128 | 10587 ft | 306 kts | 169° |
| 2026-05-05 11:15 | 41.94843 | -88.02112 | 10551 ft | 305 kts | 169° |
| 2026-05-05 11:15 | 41.92864 | -88.01104 | 10518 ft | 303 kts | 169° |
| 2026-05-05 11:15 | 41.90923 | -87.99980 | 10457 ft | 311 kts | 156° |
| 2026-05-05 11:15 | 41.89280 | -87.97970 | 10124 ft | 327 kts | 130° |
| 2026-05-05 11:16 | 41.88362 | -87.95322 | 9788 ft | 333 kts | 105° |
| 2026-05-05 11:16 | 41.88199 | -87.92347 | 9331 ft | 333 kts | 86° |
| 2026-05-05 11:16 | 41.88329 | -87.89246 | 9059 ft | 326 kts | 88° |
| 2026-05-05 11:16 | 41.88381 | -87.86393 | 8676 ft | 322 kts | 90° |
| 2026-05-05 11:17 | 41.88406 | -87.83413 | 8189 ft | 320 kts | 90° |
| 2026-05-05 11:17 | 41.88417 | -87.80522 | 7984 ft | 301 kts | 90° |
| 2026-05-05 11:17 | 41.88422 | -87.77814 | 7767 ft | 284 kts | 90° |
| 2026-05-05 11:17 | 41.88424 | -87.75175 | 7250 ft | 278 kts | 90° |
| 2026-05-05 11:18 | 41.88423 | -87.72636 | 6751 ft | 272 kts | 90° |
| 2026-05-05 11:18 | 41.88420 | -87.70109 | 6215 ft | 268 kts | 89° |
| 2026-05-05 11:18 | 41.88416 | -87.67709 | 5919 ft | 254 kts | 89° |
| 2026-05-05 11:18 | 41.88412 | -87.65359 | 5428 ft | 250 kts | 89° |
| 2026-05-05 11:19 | 41.88407 | -87.63043 | 5193 ft | 245 kts | 89° |
| 2026-05-05 11:19 | 41.88402 | -87.60799 | 5132 ft | 233 kts | 89° |
| 2026-05-05 11:19 | 41.88397 | -87.58677 | 5036 ft | 224 kts | 88° |
| 2026-05-05 11:19 | 41.88444 | -87.56610 | 4803 ft | 220 kts | 73° |
| 2026-05-05 11:20 | 41.89121 | -87.54906 | 4726 ft | 202 kts | 33° |
| 2026-05-05 11:20 | 41.90373 | -87.54168 | 4696 ft | 199 kts | 1° |
| 2026-05-05 11:20 | 41.91766 | -87.54089 | 4600 ft | 200 kts | 355° |
| 2026-05-05 11:20 | 41.93108 | -87.54302 | 4445 ft | 190 kts | 330° |
| 2026-05-05 11:21 | 41.94096 | -87.55406 | 4383 ft | 185 kts | 307° |
| 2026-05-05 11:21 | 41.94879 | -87.56795 | 4273 ft | 187 kts | 306° |
| 2026-05-05 11:21 | 41.95633 | -87.58185 | 4194 ft | 183 kts | 306° |
| 2026-05-05 11:21 | 41.96314 | -87.59615 | 4054 ft | 184 kts | 288° |
| 2026-05-05 11:22 | 41.96439 | -87.61352 | 3973 ft | 189 kts | 272° |
| 2026-05-05 11:22 | 41.96451 | -87.63123 | 3846 ft | 190 kts | 274° |
| 2026-05-05 11:22 | 41.96472 | -87.64895 | 3709 ft | 188 kts | 274° |
| 2026-05-05 11:22 | 41.96487 | -87.66627 | 3581 ft | 186 kts | 274° |
| 2026-05-05 11:23 | 41.96500 | -87.68388 | 3454 ft | 187 kts | 274° |
| 2026-05-05 11:23 | 41.96508 | -87.70078 | 3393 ft | 182 kts | 274° |
| 2026-05-05 11:23 | 41.96516 | -87.71764 | 3177 ft | 176 kts | 274° |
| 2026-05-05 11:23 | 41.96522 | -87.73363 | 2958 ft | 167 kts | 275° |
| 2026-05-05 11:24 | 41.96525 | -87.74851 | 2734 ft | 152 kts | 275° |
| 2026-05-05 11:24 | 41.96531 | -87.76238 | 2602 ft | 148 kts | 276° |
| 2026-05-05 11:24 | 41.96535 | -87.77591 | 2424 ft | 140 kts | 276° |
| 2026-05-05 11:24 | 41.96537 | -87.78839 | 2198 ft | 127 kts | 277° |
| 2026-05-05 11:25 | 41.96542 | -87.79996 | 2029 ft | 125 kts | 278° |
| 2026-05-05 11:25 | 41.96555 | -87.81194 | 1922 ft | 129 kts | 278° |
| 2026-05-05 11:25 | 41.96568 | -87.82398 | 1779 ft | 128 kts | 278° |
| 2026-05-05 11:25 | 41.96583 | -87.83591 | 1579 ft | 131 kts | 276° |
| 2026-05-05 11:26 | 41.96576 | -87.84821 | 1390 ft | 133 kts | 275° |
| 2026-05-05 11:26 | 41.96567 | -87.86066 | 1198 ft | 134 kts | 276° |
| 2026-05-05 11:26 | 41.96579 | -87.87334 | 996 ft | 134 kts | 275° |
| 2026-05-05 11:26 | 41.96582 | -87.88564 | 821 ft | 132 kts | 274° |
| 2026-05-05 11:27 | 41.96573 | -87.89812 | 682 ft | 132 kts | 277° |
| 2026-05-05 11:27 | 41.96582 | -87.90758 | 677 ft | 73 kts | 268° |
| 2026-05-05 11:27 | 41.96580 | -87.91203 | 677 ft | 32 kts | 273° |
| 2026-05-05 11:27 | 41.96611 | -87.91428 | 677 ft | 21 kts | 297° |
| 2026-05-05 11:28 | 41.96693 | -87.91566 | 677 ft | 11 kts | 309° |
| 2026-05-05 11:28 | 41.96731 | -87.91653 | 677 ft | 10 kts | 285° |
| 2026-05-05 11:28 | 41.96736 | -87.91741 | 677 ft | 10 kts | 270° |
| 2026-05-05 11:28 | 41.96737 | -87.91871 | 677 ft | 16 kts | 270° |
| 2026-05-05 11:29 | 41.96737 | -87.91997 | 677 ft | 9 kts | 269° |
| 2026-05-05 11:29 | 41.96742 | -87.92069 | 677 ft | 5 kts | 301° |
| 2026-05-05 11:29 | 41.96783 | -87.92088 | 677 ft | 7 kts | 359° |
| 2026-05-05 11:29 | 41.96838 | -87.92088 | 677 ft | 8 kts | 0° |
| 2026-05-05 11:30 | 41.96912 | -87.92087 | 677 ft | 14 kts | 1° |
| 2026-05-05 11:30 | 41.97029 | -87.92085 | 677 ft | 16 kts | 360° |
| 2026-05-05 11:30 | 41.97139 | -87.92086 | 677 ft | 14 kts | 360° |
| 2026-05-05 11:30 | 41.97221 | -87.92086 | 677 ft | 9 kts | 358° |
| 2026-05-05 11:31 | 41.97249 | -87.92151 | 677 ft | 12 kts | 273° |
| 2026-05-05 11:31 | 41.97250 | -87.92285 | 677 ft | 14 kts | 270° |
| 2026-05-05 11:31 | 41.97252 | -87.92416 | 677 ft | 13 kts | 271° |
| 2026-05-05 11:31 | 41.97252 | -87.92468 | 677 ft | 1 kts | 270° |
| 2026-05-05 11:32 | 41.97253 | -87.92497 | 677 ft | 4 kts | 271° |
| 2026-05-05 11:32 | 41.97241 | -87.92532 | 677 ft | 5 kts | 215° |
| 2026-05-05 11:32 | 41.97183 | -87.92532 | 677 ft | 11 kts | 152° |
| 2026-05-05 11:32 | 41.97155 | -87.92441 | 677 ft | 10 kts | 90° |
| 2026-05-05 11:33 | 41.97156 | -87.92352 | 677 ft | 8 kts | 89° |
| 2026-05-05 11:33 | 41.97157 | -87.92279 | 677 ft | 7 kts | 88° |
| 2026-05-05 11:33 | 41.97158 | -87.92215 | 677 ft | 6 kts | 89° |
| 2026-05-05 11:33 | 41.97158 | -87.92155 | 677 ft | 7 kts | 92° |
| 2026-05-05 11:34 | 41.97155 | -87.92069 | 677 ft | 11 kts | 91° |
| 2026-05-05 11:34 | 41.97155 | -87.91949 | 677 ft | 14 kts | 91° |
| 2026-05-05 11:34 | 41.97150 | -87.91791 | 677 ft | 18 kts | 93° |
| 2026-05-05 11:34 | 41.97142 | -87.91602 | 677 ft | 22 kts | 91° |
| 2026-05-05 11:35 | 41.97145 | -87.91415 | 677 ft | 12 kts | 88° |
| 2026-05-05 11:35 | 41.97160 | -87.91304 | 677 ft | 12 kts | 59° |
| 2026-05-05 11:35 | 41.97220 | -87.91199 | 677 ft | 14 kts | 50° |
| 2026-05-05 11:35 | 41.97279 | -87.91138 | 677 ft | 9 kts | 4° |
| 2026-05-05 11:36 | 41.97329 | -87.91170 | 677 ft | 7 kts | 327° |
| 2026-05-05 11:36 | 41.97383 | -87.91148 | 677 ft | 10 kts | 37° |
| 2026-05-05 11:36 | 41.97443 | -87.91080 | 677 ft | 11 kts | 44° |
| 2026-05-05 11:36 | 41.97499 | -87.91058 | 677 ft | 6 kts | 17° |
| 2026-05-05 11:37 | 41.97530 | -87.91010 | 677 ft | 9 kts | 65° |
| 2026-05-05 11:37 | 41.97556 | -87.90922 | 677 ft | 9 kts | 61° |
| 2026-05-05 11:37 | 41.97618 | -87.90879 | 677 ft | 10 kts | 8° |
| 2026-05-05 11:37 | 41.97689 | -87.90864 | 677 ft | 9 kts | 8° |
| 2026-05-05 11:38 | 41.97750 | -87.90854 | 677 ft | 8 kts | 6° |
| 2026-05-05 11:38 | 41.97798 | -87.90841 | 677 ft | 6 kts | 12° |
| 2026-05-05 11:38 | 41.97831 | -87.90824 | 677 ft | 3 kts | 46° |
| 2026-05-05 11:38 | 41.97837 | -87.90799 | 677 ft | 3 kts | 86° |
| 2026-05-05 11:39 | 41.97835 | -87.90774 | 677 ft | 1 kts | 97° |
| 2026-05-05 11:39 | 41.97834 | -87.90768 | 677 ft | 0 kts | 97° |
| 2026-05-05 11:43 | 41.97833 | -87.90758 | 676 ft | 0 kts | 97° |
| 2026-05-05 11:44 | 41.97832 | -87.90758 | 677 ft | 0 kts | 97° |
| 2026-05-05 11:44 | 41.97834 | -87.90759 | 677 ft | 0 kts | 101° |